sensor_id;sensor_type;location;lat;lon;timestamp;pressure;altitude;pressure_sealevel;temperature;humidity
71770;BME280;66386;52.122;5.420;2023-07-13T00:00:09;101432.56;;;17.25;71.29
71770;BME280;66386;52.122;5.420;2023-07-13T00:02:36;101433.56;;;17.22;71.64
71770;BME280;66386;52.122;5.420;2023-07-13T00:05:03;101431.31;;;17.16;71.76
71770;BME280;66386;52.122;5.420;2023-07-13T00:07:29;101431.56;;;17.12;72.11
71770;BME280;66386;52.122;5.420;2023-07-13T00:09:57;101429.28;;;17.05;72.26
71770;BME280;66386;52.122;5.420;2023-07-13T00:12:31;101430.22;;;17.04;72.69
71770;BME280;66386;52.122;5.420;2023-07-13T00:15:01;101442.44;;;17.02;72.78
71770;BME280;66386;52.122;5.420;2023-07-13T00:17:29;101436.66;;;16.97;72.93
71770;BME280;66386;52.122;5.420;2023-07-13T00:19:56;101434.25;;;16.94;72.80
71770;BME280;66386;52.122;5.420;2023-07-13T00:22:24;101431.91;;;16.89;73.16
71770;BME280;66386;52.122;5.420;2023-07-13T00:24:53;101438.16;;;16.85;73.28
71770;BME280;66386;52.122;5.420;2023-07-13T00:27:22;101433.03;;;16.84;72.91
71770;BME280;66386;52.122;5.420;2023-07-13T00:29:49;101441.00;;;16.81;73.07
71770;BME280;66386;52.122;5.420;2023-07-13T00:32:15;101438.53;;;16.78;73.19
71770;BME280;66386;52.122;5.420;2023-07-13T00:34:42;101433.50;;;16.74;73.07
71770;BME280;66386;52.122;5.420;2023-07-13T00:37:09;101434.66;;;16.69;73.02
71770;BME280;66386;52.122;5.420;2023-07-13T00:39:37;101427.91;;;16.66;73.04
71770;BME280;66386;52.122;5.420;2023-07-13T00:42:05;101432.50;;;16.61;73.38
71770;BME280;66386;52.122;5.420;2023-07-13T00:44:32;101429.06;;;16.61;73.83
71770;BME280;66386;52.122;5.420;2023-07-13T00:46:59;101430.88;;;16.58;73.62
71770;BME280;66386;52.122;5.420;2023-07-13T00:49:27;101438.84;;;16.55;73.72
71770;BME280;66386;52.122;5.420;2023-07-13T00:52:02;101446.78;;;16.52;73.49
71770;BME280;66386;52.122;5.420;2023-07-13T00:54:54;101444.44;;;16.48;73.68
71770;BME280;66386;52.122;5.420;2023-07-13T00:57:23;101436.72;;;16.46;74.32
71770;BME280;66386;52.122;5.420;2023-07-13T00:59:56;101436.13;;;16.41;74.25
71770;BME280;66386;52.122;5.420;2023-07-13T01:02:25;101434.53;;;16.38;74.57
71770;BME280;66386;52.122;5.420;2023-07-13T01:04:52;101435.69;;;16.33;74.53
71770;BME280;66386;52.122;5.420;2023-07-13T01:07:18;101431.41;;;16.32;74.68
71770;BME280;66386;52.122;5.420;2023-07-13T01:09:45;101429.06;;;16.27;74.62
71770;BME280;66386;52.122;5.420;2023-07-13T01:12:12;101439.59;;;16.24;75.27
71770;BME280;66386;52.122;5.420;2023-07-13T01:14:40;101442.34;;;16.21;75.24
71770;BME280;66386;52.122;5.420;2023-07-13T01:17:09;101443.25;;;16.20;75.33
71770;BME280;66386;52.122;5.420;2023-07-13T01:19:39;101445.22;;;16.15;75.54
71770;BME280;66386;52.122;5.420;2023-07-13T01:22:09;101442.88;;;16.10;75.63
71770;BME280;66386;52.122;5.420;2023-07-13T01:24:41;101448.16;;;16.09;75.94
71770;BME280;66386;52.122;5.420;2023-07-13T01:27:10;101447.56;;;16.03;75.69
71770;BME280;66386;52.122;5.420;2023-07-13T01:29:38;101449.28;;;16.03;76.09
71770;BME280;66386;52.122;5.420;2023-07-13T01:32:16;101447.84;;;15.97;76.27
71770;BME280;66386;52.122;5.420;2023-07-13T01:34:43;101443.88;;;15.90;76.35
71770;BME280;66386;52.122;5.420;2023-07-13T01:37:11;101451.13;;;15.83;76.84
71770;BME280;66386;52.122;5.420;2023-07-13T01:39:38;101452.03;;;15.82;76.74
71770;BME280;66386;52.122;5.420;2023-07-13T01:42:05;101452.13;;;15.81;77.01
71770;BME280;66386;52.122;5.420;2023-07-13T01:44:32;101448.81;;;15.77;76.90
71770;BME280;66386;52.122;5.420;2023-07-13T01:46:59;101448.19;;;15.72;76.90
71770;BME280;66386;52.122;5.420;2023-07-13T01:49:25;101439.81;;;15.67;77.22
71770;BME280;66386;52.122;5.420;2023-07-13T01:51:52;101445.00;;;15.67;77.31
71770;BME280;66386;52.122;5.420;2023-07-13T01:54:18;101447.75;;;15.64;77.47
71770;BME280;66386;52.122;5.420;2023-07-13T01:56:45;101456.50;;;15.61;77.37
71770;BME280;66386;52.122;5.420;2023-07-13T01:59:12;101452.97;;;15.62;77.28
71770;BME280;66386;52.122;5.420;2023-07-13T02:01:38;101448.88;;;15.58;77.39
71770;BME280;66386;52.122;5.420;2023-07-13T02:04:05;101452.38;;;15.57;77.54
71770;BME280;66386;52.122;5.420;2023-07-13T02:06:31;101451.66;;;15.53;77.59
71770;BME280;66386;52.122;5.420;2023-07-13T02:08:58;101451.88;;;15.49;77.87
71770;BME280;66386;52.122;5.420;2023-07-13T02:11:25;101456.25;;;15.48;77.89
71770;BME280;66386;52.122;5.420;2023-07-13T02:14:00;101455.59;;;15.43;77.92
71770;BME280;66386;52.122;5.420;2023-07-13T02:16:29;101458.41;;;15.39;78.29
71770;BME280;66386;52.122;5.420;2023-07-13T02:18:56;101458.47;;;15.37;78.38
71770;BME280;66386;52.122;5.420;2023-07-13T02:21:23;101461.31;;;15.32;78.61
71770;BME280;66386;52.122;5.420;2023-07-13T02:23:50;101455.38;;;15.30;78.57
71770;BME280;66386;52.122;5.420;2023-07-13T02:26:16;101454.56;;;15.28;78.77
71770;BME280;66386;52.122;5.420;2023-07-13T02:28:43;101455.47;;;15.27;78.94
71770;BME280;66386;52.122;5.420;2023-07-13T02:31:12;101465.22;;;15.22;78.95
71770;BME280;66386;52.122;5.420;2023-07-13T02:33:39;101465.22;;;15.22;79.15
71770;BME280;66386;52.122;5.420;2023-07-13T02:36:06;101457.75;;;15.16;79.39
71770;BME280;66386;52.122;5.420;2023-07-13T02:38:33;101463.97;;;15.12;79.52
71770;BME280;66386;52.122;5.420;2023-07-13T02:41:04;101469.16;;;15.12;79.56
71770;BME280;66386;52.122;5.420;2023-07-13T02:43:32;101466.63;;;15.10;79.73
71770;BME280;66386;52.122;5.420;2023-07-13T02:45:59;101464.94;;;15.09;79.76
71770;BME280;66386;52.122;5.420;2023-07-13T02:48:30;101470.91;;;15.11;79.59
71770;BME280;66386;52.122;5.420;2023-07-13T02:50:57;101466.72;;;15.09;79.75
71770;BME280;66386;52.122;5.420;2023-07-13T02:53:23;101467.81;;;15.03;79.82
71770;BME280;66386;52.122;5.420;2023-07-13T02:55:50;101467.81;;;15.03;80.05
71770;BME280;66386;52.122;5.420;2023-07-13T02:58:17;101459.34;;;14.99;80.15
71770;BME280;66386;52.122;5.420;2023-07-13T03:00:45;101463.75;;;14.97;80.32
71770;BME280;66386;52.122;5.420;2023-07-13T03:03:13;101466.44;;;14.96;80.37
71770;BME280;66386;52.122;5.420;2023-07-13T03:05:42;101466.50;;;14.94;80.53
71770;BME280;66386;52.122;5.420;2023-07-13T03:08:09;101476.91;;;14.93;80.78
71770;BME280;66386;52.122;5.420;2023-07-13T03:10:37;101475.44;;;14.87;80.99
71770;BME280;66386;52.122;5.420;2023-07-13T03:13:04;101486.00;;;14.82;81.39
71770;BME280;66386;52.122;5.420;2023-07-13T03:15:30;101482.69;;;14.79;81.43
71770;BME280;66386;52.122;5.420;2023-07-13T03:17:57;101478.38;;;14.79;81.67
71770;BME280;66386;52.122;5.420;2023-07-13T03:20:24;101473.28;;;14.78;81.47
71770;BME280;66386;52.122;5.420;2023-07-13T03:22:50;101478.38;;;14.79;81.65
71770;BME280;66386;52.122;5.420;2023-07-13T03:25:17;101476.75;;;14.77;81.77
71770;BME280;66386;52.122;5.420;2023-07-13T03:27:44;101472.56;;;14.74;81.83
71770;BME280;66386;52.122;5.420;2023-07-13T03:30:11;101476.91;;;14.74;82.07
71770;BME280;66386;52.122;5.420;2023-07-13T03:32:37;101485.56;;;14.73;82.27
71770;BME280;66386;52.122;5.420;2023-07-13T03:35:04;101489.91;;;14.72;82.43
71770;BME280;66386;52.122;5.420;2023-07-13T03:37:31;101490.94;;;14.68;82.69
71770;BME280;66386;52.122;5.420;2023-07-13T03:39:57;101491.00;;;14.66;82.85
71770;BME280;66386;52.122;5.420;2023-07-13T03:42:24;101495.34;;;14.66;83.24
71770;BME280;66386;52.122;5.420;2023-07-13T03:44:53;101494.44;;;14.67;83.49
71770;BME280;66386;52.122;5.420;2023-07-13T03:47:19;101498.69;;;14.68;83.84
71770;BME280;66386;52.122;5.420;2023-07-13T03:49:46;101496.13;;;14.68;83.70
71770;BME280;66386;52.122;5.420;2023-07-13T03:52:13;101497.81;;;14.69;83.88
71770;BME280;66386;52.122;5.420;2023-07-13T03:54:39;101501.97;;;14.72;83.78
71770;BME280;66386;52.122;5.420;2023-07-13T03:57:06;101504.56;;;14.72;83.67
71770;BME280;66386;52.122;5.420;2023-07-13T03:59:33;101512.22;;;14.75;83.59
71770;BME280;66386;52.122;5.420;2023-07-13T04:02:01;101513.00;;;14.77;83.79
71770;BME280;66386;52.122;5.420;2023-07-13T04:04:27;101509.50;;;14.78;83.87
71770;BME280;66386;52.122;5.420;2023-07-13T04:06:54;101512.09;;;14.78;83.83
71770;BME280;66386;52.122;5.420;2023-07-13T04:09:21;101515.56;;;14.77;84.05
71770;BME280;66386;52.122;5.420;2023-07-13T04:11:47;101513.06;;;14.75;83.98
71770;BME280;66386;52.122;5.420;2023-07-13T04:14:14;101516.41;;;14.77;84.10
71770;BME280;66386;52.122;5.420;2023-07-13T04:16:41;101519.84;;;14.78;84.10
71770;BME280;66386;52.122;5.420;2023-07-13T04:19:08;101521.66;;;14.76;84.23
71770;BME280;66386;52.122;5.420;2023-07-13T04:21:36;101528.44;;;14.78;84.42
71770;BME280;66386;52.122;5.420;2023-07-13T04:24:03;101524.09;;;14.79;84.52
71770;BME280;66386;52.122;5.420;2023-07-13T04:26:30;101531.72;;;14.82;84.53
71770;BME280;66386;52.122;5.420;2023-07-13T04:28:57;101529.03;;;14.85;84.80
71770;BME280;66386;52.122;5.420;2023-07-13T04:31:24;101534.97;;;14.87;84.99
71770;BME280;66386;52.122;5.420;2023-07-13T04:33:50;101535.66;;;14.91;84.99
71770;BME280;66386;52.122;5.420;2023-07-13T04:36:18;101534.56;;;14.96;85.19
71770;BME280;66386;52.122;5.420;2023-07-13T04:38:44;101542.91;;;15.03;85.26
71770;BME280;66386;52.122;5.420;2023-07-13T04:41:12;101533.22;;;15.07;85.11
71770;BME280;66386;52.122;5.420;2023-07-13T04:43:39;101530.41;;;15.13;85.13
71770;BME280;66386;52.122;5.420;2023-07-13T04:46:16;101537.09;;;15.17;85.24
71770;BME280;66386;52.122;5.420;2023-07-13T04:48:46;101527.31;;;15.24;84.97
71770;BME280;66386;52.122;5.420;2023-07-13T04:51:13;101533.97;;;15.29;84.92
71770;BME280;66386;52.122;5.420;2023-07-13T04:53:40;101535.50;;;15.33;84.93
71770;BME280;66386;52.122;5.420;2023-07-13T04:56:06;101543.88;;;15.39;84.95
71770;BME280;66386;52.122;5.420;2023-07-13T04:58:33;101532.34;;;15.46;84.86
71770;BME280;66386;52.122;5.420;2023-07-13T05:01:05;101529.47;;;15.52;84.81
71770;BME280;66386;52.122;5.420;2023-07-13T05:03:32;101531.78;;;15.58;84.52
71770;BME280;66386;52.122;5.420;2023-07-13T05:06:04;101537.50;;;15.65;84.28
71770;BME280;66386;52.122;5.420;2023-07-13T05:08:31;101541.78;;;15.66;84.44
71770;BME280;66386;52.122;5.420;2023-07-13T05:11:04;101539.78;;;15.71;84.49
71770;BME280;66386;52.122;5.420;2023-07-13T05:13:31;101538.50;;;15.81;84.39
71770;BME280;66386;52.122;5.420;2023-07-13T05:16:02;101541.03;;;15.83;84.43
71770;BME280;66386;52.122;5.420;2023-07-13T05:18:30;101545.19;;;15.85;84.49
71770;BME280;66386;52.122;5.420;2023-07-13T05:21:08;101546.66;;;15.91;84.48
71770;BME280;66386;52.122;5.420;2023-07-13T05:23:36;101551.28;;;16.03;84.38
71770;BME280;66386;52.122;5.420;2023-07-13T05:26:03;101559.56;;;16.10;84.53
71770;BME280;66386;52.122;5.420;2023-07-13T05:28:35;101559.28;;;16.16;84.02
71770;BME280;66386;52.122;5.420;2023-07-13T05:31:03;101554.03;;;16.18;84.27
71770;BME280;66386;52.122;5.420;2023-07-13T05:33:30;101560.66;;;16.23;84.19
71770;BME280;66386;52.122;5.420;2023-07-13T05:35:57;101562.88;;;16.31;84.03
71770;BME280;66386;52.122;5.420;2023-07-13T05:38:23;101569.66;;;16.34;84.07
71770;BME280;66386;52.122;5.420;2023-07-13T05:40:50;101566.06;;;16.36;83.89
71770;BME280;66386;52.122;5.420;2023-07-13T05:43:17;101566.06;;;16.36;83.90
71770;BME280;66386;52.122;5.420;2023-07-13T05:45:44;101569.44;;;16.38;84.23
71770;BME280;66386;52.122;5.420;2023-07-13T05:48:10;101577.09;;;16.42;84.18
71770;BME280;66386;52.122;5.420;2023-07-13T05:50:37;101576.75;;;16.48;84.23
71770;BME280;66386;52.122;5.420;2023-07-13T05:53:04;101581.72;;;16.52;84.19
71770;BME280;66386;52.122;5.420;2023-07-13T05:55:31;101573.53;;;16.60;83.76
71770;BME280;66386;52.122;5.420;2023-07-13T05:58:00;101579.19;;;16.68;83.58
71770;BME280;66386;52.122;5.420;2023-07-13T06:00:27;101580.56;;;16.75;83.48
71770;BME280;66386;52.122;5.420;2023-07-13T06:02:53;101593.38;;;16.79;83.57
71770;BME280;66386;52.122;5.420;2023-07-13T06:05:20;101591.47;;;16.82;83.12
71770;BME280;66386;52.122;5.420;2023-07-13T06:07:46;101595.25;;;16.94;83.41
71770;BME280;66386;52.122;5.420;2023-07-13T06:10:13;101593.84;;;17.04;83.06
71770;BME280;66386;52.122;5.420;2023-07-13T06:12:39;101604.34;;;17.19;82.77
71770;BME280;66386;52.122;5.420;2023-07-13T06:15:06;101608.44;;;17.23;82.12
71770;BME280;66386;52.122;5.420;2023-07-13T06:17:33;101609.72;;;17.32;82.63
71770;BME280;66386;52.122;5.420;2023-07-13T06:20:00;101603.06;;;17.43;81.95
71770;BME280;66386;52.122;5.420;2023-07-13T06:22:26;101602.94;;;17.77;81.32
71770;BME280;66386;52.122;5.420;2023-07-13T06:24:53;101609.03;;;17.93;80.23
71770;BME280;66386;52.122;5.420;2023-07-13T06:27:20;101610.78;;;17.93;79.72
71770;BME280;66386;52.122;5.420;2023-07-13T06:29:46;101620.59;;;17.88;79.20
71770;BME280;66386;52.122;5.420;2023-07-13T06:32:13;101617.97;;;18.20;79.01
71770;BME280;66386;52.122;5.420;2023-07-13T06:34:39;101612.50;;;18.24;78.73
71770;BME280;66386;52.122;5.420;2023-07-13T06:37:09;101617.69;;;18.40;78.44
71770;BME280;66386;52.122;5.420;2023-07-13T06:39:36;101618.34;;;18.28;78.54
71770;BME280;66386;52.122;5.420;2023-07-13T06:42:03;101619.16;;;18.14;79.19
71770;BME280;66386;52.122;5.420;2023-07-13T06:44:29;101624.38;;;18.14;79.00
71770;BME280;66386;52.122;5.420;2023-07-13T06:46:56;101618.81;;;18.20;79.10
71770;BME280;66386;52.122;5.420;2023-07-13T06:49:23;101615.66;;;18.29;78.58
71770;BME280;66386;52.122;5.420;2023-07-13T06:51:49;101622.66;;;18.29;78.87
71770;BME280;66386;52.122;5.420;2023-07-13T06:54:16;101617.81;;;18.23;78.69
71770;BME280;66386;52.122;5.420;2023-07-13T06:56:42;101627.44;;;18.21;78.72
71770;BME280;66386;52.122;5.420;2023-07-13T06:59:09;101623.16;;;18.36;78.04
71770;BME280;66386;52.122;5.420;2023-07-13T07:01:35;101619.75;;;18.94;78.15
71770;BME280;66386;52.122;5.420;2023-07-13T07:04:06;101620.69;;;19.51;75.18
71770;BME280;66386;52.122;5.420;2023-07-13T07:06:32;101633.53;;;19.54;74.41
71770;BME280;66386;52.122;5.420;2023-07-13T07:08:59;101637.72;;;19.42;74.92
71770;BME280;66386;52.122;5.420;2023-07-13T07:11:26;101645.66;;;19.26;75.22
71770;BME280;66386;52.122;5.420;2023-07-13T07:13:53;101643.69;;;19.30;75.66
71770;BME280;66386;52.122;5.420;2023-07-13T07:16:20;101643.59;;;19.31;75.37
71770;BME280;66386;52.122;5.420;2023-07-13T07:18:47;101647.88;;;19.47;74.75
71770;BME280;66386;52.122;5.420;2023-07-13T07:21:14;101643.59;;;19.46;74.36
71770;BME280;66386;52.122;5.420;2023-07-13T07:23:43;101647.59;;;19.37;74.96
71770;BME280;66386;52.122;5.420;2023-07-13T07:26:10;101658.41;;;19.31;74.92
71770;BME280;66386;52.122;5.420;2023-07-13T07:28:37;101657.28;;;19.21;76.26
71770;BME280;66386;52.122;5.420;2023-07-13T07:31:08;101654.19;;;19.14;78.29
71770;BME280;66386;52.122;5.420;2023-07-13T07:33:37;101655.97;;;19.13;78.83
71770;BME280;66386;52.122;5.420;2023-07-13T07:36:04;101666.22;;;19.16;80.10
71770;BME280;66386;52.122;5.420;2023-07-13T07:38:34;101657.34;;;19.05;80.48
71770;BME280;66386;52.122;5.420;2023-07-13T07:41:03;101658.56;;;18.99;80.81
71770;BME280;66386;52.122;5.420;2023-07-13T07:43:33;101650.94;;;18.96;81.36
71770;BME280;66386;52.122;5.420;2023-07-13T07:46:00;101648.09;;;18.84;81.54
71770;BME280;66386;52.122;5.420;2023-07-13T07:48:29;101647.09;;;18.87;80.07
71770;BME280;66386;52.122;5.420;2023-07-13T07:50:56;101641.72;;;18.90;81.39
71770;BME280;66386;52.122;5.420;2023-07-13T07:53:22;101639.13;;;19.05;81.51
71770;BME280;66386;52.122;5.420;2023-07-13T07:55:49;101638.28;;;19.04;80.99
71770;BME280;66386;52.122;5.420;2023-07-13T07:58:18;101640.97;;;19.02;81.39
71770;BME280;66386;52.122;5.420;2023-07-13T08:00:48;101633.81;;;19.06;81.59
71770;BME280;66386;52.122;5.420;2023-07-13T08:03:17;101629.53;;;19.34;81.67
71770;BME280;66386;52.122;5.420;2023-07-13T08:05:47;101628.75;;;19.46;80.66
71770;BME280;66386;52.122;5.420;2023-07-13T08:08:34;101640.47;;;19.82;80.88
71770;BME280;66386;52.122;5.420;2023-07-13T08:11:05;101636.41;;;20.46;79.73
71770;BME280;66386;52.122;5.420;2023-07-13T08:13:36;101647.56;;;21.01;75.98
71770;BME280;66386;52.122;5.420;2023-07-13T08:16:04;101653.44;;;20.91;74.95
71770;BME280;66386;52.122;5.420;2023-07-13T08:18:32;101651.84;;;20.89;73.39
71770;BME280;66386;52.122;5.420;2023-07-13T08:21:03;101644.97;;;20.75;71.94
71770;BME280;66386;52.122;5.420;2023-07-13T08:23:30;101635.00;;;20.27;73.85
71770;BME280;66386;52.122;5.420;2023-07-13T08:25:59;101638.63;;;19.84;73.46
71770;BME280;66386;52.122;5.420;2023-07-13T08:28:28;101648.66;;;19.76;76.12
71770;BME280;66386;52.122;5.420;2023-07-13T08:30:54;101657.53;;;20.15;74.37
71770;BME280;66386;52.122;5.420;2023-07-13T08:33:22;101646.84;;;20.46;74.97
71770;BME280;66386;52.122;5.420;2023-07-13T08:35:52;101643.88;;;20.65;73.49
71770;BME280;66386;52.122;5.420;2023-07-13T08:38:20;101651.34;;;20.84;72.75
71770;BME280;66386;52.122;5.420;2023-07-13T08:40:55;101629.69;;;21.20;70.78
71770;BME280;66386;52.122;5.420;2023-07-13T08:43:26;101633.94;;;21.21;67.16
71770;BME280;66386;52.122;5.420;2023-07-13T08:46:15;101636.28;;;21.13;69.42
71770;BME280;66386;52.122;5.420;2023-07-13T08:48:53;101638.50;;;21.43;67.77
71770;BME280;66386;52.122;5.420;2023-07-13T08:51:58;101658.97;;;21.75;67.71
71770;BME280;66386;52.122;5.420;2023-07-13T08:56:58;101673.25;;;21.45;62.97
71770;BME280;66386;52.122;5.420;2023-07-13T08:59:31;101673.91;;;21.23;65.51
71770;BME280;66386;52.122;5.420;2023-07-13T09:05:10;101672.78;;;20.49;67.33
71770;BME280;66386;52.122;5.420;2023-07-13T09:10:19;101678.84;;;19.95;66.98
71770;BME280;66386;52.122;5.420;2023-07-13T09:15:31;101675.84;;;20.01;68.64
71770;BME280;66386;52.122;5.420;2023-07-13T09:18:03;101664.66;;;19.99;69.70
71770;BME280;66386;52.122;5.420;2023-07-13T09:20:34;101666.69;;;20.08;73.14
71770;BME280;66386;52.122;5.420;2023-07-13T09:23:09;101671.97;;;20.21;71.93
71770;BME280;66386;52.122;5.420;2023-07-13T09:25:40;101667.56;;;20.21;71.94
71770;BME280;66386;52.122;5.420;2023-07-13T09:28:15;101669.97;;;20.25;71.31
71770;BME280;66386;52.122;5.420;2023-07-13T09:31:03;101669.09;;;20.51;72.20
71770;BME280;66386;52.122;5.420;2023-07-13T09:33:30;101664.50;;;20.69;69.54
71770;BME280;66386;52.122;5.420;2023-07-13T09:35:58;101670.25;;;20.87;69.53
71770;BME280;66386;52.122;5.420;2023-07-13T09:38:27;101664.09;;;21.01;67.50
71770;BME280;66386;52.122;5.420;2023-07-13T09:41:28;101662.59;;;21.36;66.10
71770;BME280;66386;52.122;5.420;2023-07-13T09:44:08;101665.84;;;21.39;63.97
71770;BME280;66386;52.122;5.420;2023-07-13T09:46:35;101665.97;;;21.25;63.81
71770;BME280;66386;52.122;5.420;2023-07-13T09:49:02;101671.81;;;20.90;65.29
71770;BME280;66386;52.122;5.420;2023-07-13T09:51:29;101676.25;;;20.62;67.56
71770;BME280;66386;52.122;5.420;2023-07-13T09:53:56;101686.28;;;20.28;67.38
71770;BME280;66386;52.122;5.420;2023-07-13T09:56:27;101713.03;;;19.90;70.69
71770;BME280;66386;52.122;5.420;2023-07-13T09:58:56;101726.38;;;19.42;74.77
71770;BME280;66386;52.122;5.420;2023-07-13T10:01:37;101717.16;;;18.76;76.85
71770;BME280;66386;52.122;5.420;2023-07-13T10:04:12;101714.03;;;18.55;77.21
71770;BME280;66386;52.122;5.420;2023-07-13T10:06:40;101715.19;;;18.65;77.76
71770;BME280;66386;52.122;5.420;2023-07-13T10:09:13;101709.28;;;19.08;77.97
71770;BME280;66386;52.122;5.420;2023-07-13T10:11:41;101707.56;;;19.80;77.84
71770;BME280;66386;52.122;5.420;2023-07-13T10:14:14;101702.47;;;20.06;77.10
71770;BME280;66386;52.122;5.420;2023-07-13T10:16:43;101709.78;;;20.28;77.38
71770;BME280;66386;52.122;5.420;2023-07-13T10:21:55;101718.38;;;20.70;76.95
71770;BME280;66386;52.122;5.420;2023-07-13T10:24:24;101714.16;;;20.55;71.04
71770;BME280;66386;52.122;5.420;2023-07-13T10:27:01;101712.53;;;20.39;74.31
71770;BME280;66386;52.122;5.420;2023-07-13T10:29:37;101714.56;;;20.49;73.42
71770;BME280;66386;52.122;5.420;2023-07-13T10:32:11;101716.47;;;21.13;75.49
71770;BME280;66386;52.122;5.420;2023-07-13T10:34:43;101710.13;;;21.55;72.45
71770;BME280;66386;52.122;5.420;2023-07-13T10:37:39;101704.00;;;21.68;71.05
71770;BME280;66386;52.122;5.420;2023-07-13T10:40:17;101713.84;;;21.38;69.63
71770;BME280;66386;52.122;5.420;2023-07-13T10:42:48;101719.72;;;21.03;73.03
71770;BME280;66386;52.122;5.420;2023-07-13T10:45:20;101721.13;;;20.82;70.66
71770;BME280;66386;52.122;5.420;2023-07-13T10:47:49;101717.19;;;20.49;71.26
71770;BME280;66386;52.122;5.420;2023-07-13T10:50:25;101733.88;;;20.46;72.57
71770;BME280;66386;52.122;5.420;2023-07-13T10:52:55;101730.22;;;20.76;69.65
71770;BME280;66386;52.122;5.420;2023-07-13T10:55:40;101722.13;;;21.19;70.68
71770;BME280;66386;52.122;5.420;2023-07-13T10:58:43;101722.13;;;21.58;67.06
71770;BME280;66386;52.122;5.420;2023-07-13T11:01:13;101724.84;;;21.56;68.79
71770;BME280;66386;52.122;5.420;2023-07-13T11:03:55;101733.09;;;21.76;68.19
71770;BME280;66386;52.122;5.420;2023-07-13T11:08:58;101730.06;;;22.43;64.14
71770;BME280;66386;52.122;5.420;2023-07-13T11:11:34;101745.81;;;22.30;61.33
71770;BME280;66386;52.122;5.420;2023-07-13T11:14:05;101744.88;;;22.56;63.07
71770;BME280;66386;52.122;5.420;2023-07-13T11:16:42;101748.47;;;22.90;59.06
71770;BME280;66386;52.122;5.420;2023-07-13T11:24:51;101745.94;;;21.92;62.08
71770;BME280;66386;52.122;5.420;2023-07-13T11:27:27;101736.06;;;21.95;60.57
71770;BME280;66386;52.122;5.420;2023-07-13T11:33:20;101730.28;;;21.66;61.58
71770;BME280;66386;52.122;5.420;2023-07-13T11:38:21;101734.91;;;21.63;63.23
71770;BME280;66386;52.122;5.420;2023-07-13T11:40:51;101731.53;;;21.35;63.88
71770;BME280;66386;52.122;5.420;2023-07-13T11:43:22;101740.94;;;21.12;65.26
71770;BME280;66386;52.122;5.420;2023-07-13T11:45:52;101761.56;;;21.29;65.09
71770;BME280;66386;52.122;5.420;2023-07-13T11:48:28;101756.31;;;21.16;67.04
71770;BME280;66386;52.122;5.420;2023-07-13T11:51:04;101761.97;;;21.10;66.69
71770;BME280;66386;52.122;5.420;2023-07-13T11:53:39;101769.69;;;20.99;69.01
71770;BME280;66386;52.122;5.420;2023-07-13T11:56:07;101767.78;;;21.01;68.04
71770;BME280;66386;52.122;5.420;2023-07-13T11:58:34;101763.97;;;20.79;68.03
71770;BME280;66386;52.122;5.420;2023-07-13T12:01:02;101762.75;;;20.57;69.04
71770;BME280;66386;52.122;5.420;2023-07-13T12:03:33;101761.47;;;20.50;70.69
71770;BME280;66386;52.122;5.420;2023-07-13T12:06:05;101760.66;;;20.63;70.78
71770;BME280;66386;52.122;5.420;2023-07-13T12:08:38;101760.38;;;20.67;71.46
71770;BME280;66386;52.122;5.420;2023-07-13T12:11:15;101756.72;;;21.23;73.15
71770;BME280;66386;52.122;5.420;2023-07-13T12:13:43;101766.34;;;21.87;69.20
71770;BME280;66386;52.122;5.420;2023-07-13T12:16:17;101757.25;;;21.79;70.27
71770;BME280;66386;52.122;5.420;2023-07-13T12:18:48;101765.22;;;21.65;69.04
71770;BME280;66386;52.122;5.420;2023-07-13T12:21:17;101761.13;;;21.22;68.87
71770;BME280;66386;52.122;5.420;2023-07-13T12:23:48;101767.16;;;20.97;68.44
71770;BME280;66386;52.122;5.420;2023-07-13T12:26:17;101760.63;;;20.77;68.62
71770;BME280;66386;52.122;5.420;2023-07-13T12:31:41;101754.69;;;20.88;70.33
71770;BME280;66386;52.122;5.420;2023-07-13T12:36:38;101758.59;;;21.08;66.93
71770;BME280;66386;52.122;5.420;2023-07-13T12:39:21;101768.59;;;21.80;67.94
71770;BME280;66386;52.122;5.420;2023-07-13T12:41:51;101767.09;;;22.39;64.84
71770;BME280;66386;52.122;5.420;2023-07-13T12:44:24;101760.06;;;22.63;64.44
71770;BME280;66386;52.122;5.420;2023-07-13T12:47:03;101753.06;;;22.75;63.72
71770;BME280;66386;52.122;5.420;2023-07-13T12:49:33;101750.25;;;22.90;60.69
71770;BME280;66386;52.122;5.420;2023-07-13T12:52:04;101754.47;;;22.44;60.71
71770;BME280;66386;52.122;5.420;2023-07-13T12:54:40;101759.53;;;21.97;62.73
71770;BME280;66386;52.122;5.420;2023-07-13T12:57:17;101759.16;;;22.14;62.99
71770;BME280;66386;52.122;5.420;2023-07-13T12:59:44;101762.78;;;22.38;61.57
71770;BME280;66386;52.122;5.420;2023-07-13T13:02:30;101754.47;;;22.68;60.07
71770;BME280;66386;52.122;5.420;2023-07-13T13:04:58;101753.69;;;22.90;59.80
71770;BME280;66386;52.122;5.420;2023-07-13T13:07:25;101760.38;;;22.35;60.41
71770;BME280;66386;52.122;5.420;2023-07-13T13:09:52;101769.25;;;22.08;61.64
71770;BME280;66386;52.122;5.420;2023-07-13T13:12:22;101756.91;;;21.97;62.75
71770;BME280;66386;52.122;5.420;2023-07-13T13:14:52;101758.19;;;21.91;61.40
71770;BME280;66386;52.122;5.420;2023-07-13T13:17:24;101756.66;;;22.13;62.59
71770;BME280;66386;52.122;5.420;2023-07-13T13:19:54;101763.56;;;22.14;60.56
71770;BME280;66386;52.122;5.420;2023-07-13T13:22:21;101760.09;;;22.13;59.09
71770;BME280;66386;52.122;5.420;2023-07-13T13:24:48;101755.09;;;22.10;59.31
71770;BME280;66386;52.122;5.420;2023-07-13T13:27:16;101762.91;;;22.36;60.36
71770;BME280;66386;52.122;5.420;2023-07-13T13:29:44;101761.75;;;22.27;59.01
71770;BME280;66386;52.122;5.420;2023-07-13T13:32:12;101762.41;;;22.18;59.94
71770;BME280;66386;52.122;5.420;2023-07-13T13:34:40;101769.25;;;22.08;59.33